createdAt,value
2022-10-16T00:01:13.472Z,16.19
2022-10-16T00:03:41.471Z,16.19
2022-10-16T00:06:11.484Z,16.16
2022-10-16T00:08:38.880Z,16.14
2022-10-16T00:14:15.713Z,16.14
2022-10-16T00:16:42.694Z,16.10
2022-10-16T00:19:10.464Z,16.11
2022-10-16T00:21:37.011Z,16.13
2022-10-16T00:24:09.514Z,16.13
2022-10-16T00:26:37.283Z,16.16
2022-10-16T00:29:05.070Z,16.15
2022-10-16T00:31:31.817Z,16.15
2022-10-16T00:33:58.395Z,16.08
2022-10-16T00:36:26.180Z,16.13
2022-10-16T00:38:55.622Z,16.14
2022-10-16T00:41:24.357Z,16.13
2022-10-16T00:43:54.942Z,16.14
2022-10-16T00:46:24.327Z,16.21
2022-10-16T00:49:04.684Z,16.20
2022-10-16T00:51:39.195Z,16.19
2022-10-16T00:54:09.535Z,16.22
2022-10-16T00:56:36.171Z,16.24
2022-10-16T00:59:04.989Z,16.27
2022-10-16T01:01:31.726Z,16.22
2022-10-16T01:03:58.323Z,16.33
2022-10-16T01:06:53.576Z,16.35
2022-10-16T01:09:29.198Z,16.28
2022-10-16T01:12:02.782Z,16.36
2022-10-16T01:14:42.041Z,16.45
2022-10-16T01:17:15.556Z,16.41
2022-10-16T01:20:09.664Z,16.51
2022-10-16T01:23:03.698Z,16.45
2022-10-16T01:26:02.088Z,16.49
2022-10-16T01:28:42.729Z,16.45
2022-10-16T01:31:10.177Z,16.40
2022-10-16T01:33:41.451Z,16.46
2022-10-16T01:36:13.079Z,16.58
2022-10-16T01:38:41.052Z,16.60
2022-10-16T01:41:31.510Z,16.53
2022-10-16T01:44:03.668Z,16.51
2022-10-16T01:46:31.803Z,16.52
2022-10-16T01:48:59.048Z,16.55
2022-10-16T01:51:26.341Z,16.56
2022-10-16T01:53:55.272Z,16.49
2022-10-16T01:56:23.663Z,16.47
2022-10-16T01:59:03.871Z,16.38
2022-10-16T02:01:32.783Z,16.32
2022-10-16T02:04:04.912Z,16.38
2022-10-16T02:06:31.684Z,16.47
2022-10-16T02:08:58.240Z,16.38
2022-10-16T02:11:25.353Z,16.38
2022-10-16T02:14:02.903Z,16.50
2022-10-16T02:16:37.210Z,16.40
2022-10-16T02:19:05.039Z,16.34
2022-10-16T02:21:48.300Z,16.38
2022-10-16T02:24:26.447Z,16.32
2022-10-16T02:27:06.501Z,16.35
2022-10-16T02:29:34.255Z,16.48
2022-10-16T02:32:03.974Z,16.55
2022-10-16T02:34:31.772Z,16.61
2022-10-16T02:36:58.975Z,16.61
2022-10-16T02:39:26.063Z,16.56
2022-10-16T02:41:52.599Z,16.59
2022-10-16T02:44:19.140Z,16.57
2022-10-16T02:46:45.673Z,16.68
2022-10-16T02:49:12.311Z,16.71
2022-10-16T02:51:38.839Z,16.80
2022-10-16T02:54:05.662Z,16.81
2022-10-16T02:56:32.370Z,16.81
2022-10-16T02:58:58.951Z,16.86
2022-10-16T03:01:25.722Z,16.84
2022-10-16T03:03:52.354Z,16.82
2022-10-16T03:06:19.040Z,16.71
2022-10-16T03:08:45.586Z,16.73
2022-10-16T03:11:12.125Z,16.75
2022-10-16T03:13:38.689Z,16.75
2022-10-16T03:16:05.259Z,16.72
2022-10-16T03:18:31.896Z,16.70
2022-10-16T03:20:58.458Z,16.66
2022-10-16T03:23:25.074Z,16.64
2022-10-16T03:25:51.679Z,16.59
2022-10-16T03:28:18.397Z,16.59
2022-10-16T03:30:45.115Z,16.57
2022-10-16T03:33:11.663Z,16.54
2022-10-16T03:35:38.245Z,16.46
2022-10-16T03:38:04.817Z,16.41
2022-10-16T03:40:33.225Z,16.40
2022-10-16T03:43:00.220Z,16.42
2022-10-16T03:45:27.302Z,16.41
2022-10-16T03:47:53.996Z,16.33
2022-10-16T03:50:20.547Z,16.35
2022-10-16T03:52:47.159Z,16.30
2022-10-16T03:55:13.696Z,16.34
2022-10-16T03:57:40.233Z,16.33
2022-10-16T04:00:07.259Z,16.29
2022-10-16T04:02:38.566Z,16.29
2022-10-16T04:05:05.337Z,16.25
2022-10-16T04:07:31.906Z,16.19
2022-10-16T04:09:59.898Z,16.15
2022-10-16T04:12:27.386Z,16.18
2022-10-16T04:14:53.920Z,16.23
2022-10-16T04:17:20.642Z,16.25
2022-10-16T04:19:47.191Z,16.28
2022-10-16T04:22:14.157Z,16.32
2022-10-16T04:24:41.122Z,16.30
2022-10-16T04:27:07.654Z,16.31
2022-10-16T04:29:34.224Z,16.33
2022-10-16T04:32:00.777Z,16.33
2022-10-16T04:34:27.323Z,16.30
2022-10-16T04:36:53.860Z,16.27
2022-10-16T04:39:20.453Z,16.27
2022-10-16T04:41:46.998Z,16.25
2022-10-16T04:44:13.539Z,16.24
2022-10-16T04:46:40.074Z,16.23
2022-10-16T04:49:06.731Z,16.17
2022-10-16T04:51:33.279Z,16.16
2022-10-16T04:53:59.888Z,16.12
2022-10-16T04:56:26.428Z,16.12
2022-10-16T04:58:52.978Z,16.14
2022-10-16T05:01:19.552Z,16.13
2022-10-16T05:03:46.156Z,16.11
2022-10-16T05:06:12.748Z,16.07
2022-10-16T05:08:39.309Z,16.07
2022-10-16T05:11:05.854Z,16.03
2022-10-16T05:13:32.390Z,16.03
2022-10-16T05:15:58.932Z,16.04
2022-10-16T05:18:25.549Z,15.99
2022-10-16T05:20:52.176Z,16.01
2022-10-16T05:23:18.718Z,15.98
2022-10-16T05:25:54.194Z,16.00
2022-10-16T05:28:20.739Z,15.95
2022-10-16T05:30:47.292Z,15.73
2022-10-16T05:33:14.482Z,15.83
2022-10-16T05:35:41.024Z,15.83
2022-10-16T05:38:07.576Z,15.88
2022-10-16T05:40:34.261Z,15.91
2022-10-16T05:43:00.805Z,15.81
2022-10-16T05:45:27.645Z,15.83
2022-10-16T05:47:54.263Z,15.90
2022-10-16T05:50:20.996Z,15.84
2022-10-16T05:52:47.615Z,15.90
2022-10-16T05:55:14.223Z,15.93
2022-10-16T05:57:40.788Z,15.95
2022-10-16T06:00:07.784Z,15.95
2022-10-16T06:02:39.218Z,15.97
2022-10-16T06:05:05.943Z,15.97
2022-10-16T06:07:35.552Z,15.96
2022-10-16T06:10:02.252Z,15.93
2022-10-16T06:12:28.799Z,15.83
2022-10-16T06:14:55.372Z,15.75
2022-10-16T06:17:21.920Z,15.77
2022-10-16T06:19:48.457Z,15.79
2022-10-16T06:22:14.991Z,15.88
2022-10-16T06:24:41.515Z,15.88
2022-10-16T06:27:08.056Z,15.93
2022-10-16T06:29:34.661Z,15.99
2022-10-16T06:32:01.220Z,16.10
2022-10-16T06:34:27.782Z,16.06
2022-10-16T06:36:54.307Z,15.99
2022-10-16T06:39:20.847Z,16.07
2022-10-16T06:41:47.462Z,16.04
2022-10-16T06:44:15.858Z,16.05
2022-10-16T06:46:42.451Z,16.18
2022-10-16T06:49:09.050Z,16.07
2022-10-16T06:51:40.486Z,16.16
2022-10-16T06:54:09.672Z,16.12
2022-10-16T06:56:36.659Z,16.15
2022-10-16T06:59:03.898Z,16.10
2022-10-16T07:01:30.823Z,16.09
2022-10-16T07:03:57.820Z,16.20
2022-10-16T07:06:25.949Z,16.13
2022-10-16T07:08:53.045Z,16.06
2022-10-16T07:11:21.866Z,16.24
2022-10-16T07:13:52.949Z,16.28
2022-10-16T07:16:26.663Z,16.29
2022-10-16T07:19:00.053Z,16.24
2022-10-16T07:21:32.512Z,16.36
2022-10-16T07:24:00.452Z,16.50
2022-10-16T07:26:27.811Z,16.37
2022-10-16T07:28:54.549Z,16.42
2022-10-16T07:31:22.048Z,16.65
2022-10-16T07:33:49.314Z,16.63
2022-10-16T07:36:17.419Z,16.56
2022-10-16T07:38:44.303Z,16.70
2022-10-16T07:41:13.806Z,16.72
2022-10-16T07:43:40.767Z,16.85
2022-10-16T07:46:07.487Z,16.96
2022-10-16T07:48:35.638Z,16.91
2022-10-16T07:51:04.412Z,16.90
2022-10-16T07:53:31.331Z,16.97
2022-10-16T07:56:01.987Z,17.01
2022-10-16T07:58:29.486Z,17.02
2022-10-16T08:00:57.567Z,17.01
2022-10-16T08:03:24.896Z,17.13
2022-10-16T08:05:51.566Z,17.10
2022-10-16T08:08:18.859Z,17.18
2022-10-16T08:10:45.844Z,17.21
2022-10-16T08:13:13.798Z,17.24
2022-10-16T08:15:40.422Z,17.25
2022-10-16T08:18:07.014Z,17.24
2022-10-16T08:20:34.144Z,17.22
2022-10-16T08:23:01.533Z,17.34
2022-10-16T08:25:28.506Z,17.41
2022-10-16T08:27:55.103Z,17.48
2022-10-16T08:30:22.973Z,17.43
2022-10-16T08:32:49.643Z,17.56
2022-10-16T08:35:16.851Z,17.64
2022-10-16T08:37:43.689Z,17.72
2022-10-16T08:40:37.349Z,17.80
2022-10-16T08:43:23.625Z,17.70
2022-10-16T08:46:19.145Z,17.72
2022-10-16T08:48:51.560Z,17.76
2022-10-16T08:51:27.211Z,17.87
2022-10-16T08:53:58.900Z,17.82
2022-10-16T08:56:26.558Z,17.83
2022-10-16T08:58:56.663Z,17.85
2022-10-16T09:01:43.212Z,17.84
2022-10-16T09:04:30.116Z,18.11
2022-10-16T09:07:06.196Z,18.38
2022-10-16T09:10:03.647Z,18.61
2022-10-16T09:12:38.412Z,18.67
2022-10-16T09:15:23.440Z,18.78
2022-10-16T09:17:56.915Z,18.71
2022-10-16T09:20:34.923Z,18.86
2022-10-16T09:23:14.570Z,19.12
2022-10-16T09:25:44.696Z,19.22
2022-10-16T09:28:11.475Z,19.41
2022-10-16T09:30:39.450Z,19.46
2022-10-16T09:33:07.043Z,19.59
2022-10-16T09:35:39.406Z,19.81
2022-10-16T09:38:06.641Z,19.89
2022-10-16T09:40:40.611Z,20.14
2022-10-16T09:43:22.074Z,20.53
2022-10-16T09:45:56.523Z,20.62
2022-10-16T09:48:23.510Z,20.59
2022-10-16T09:50:57.647Z,20.69
2022-10-16T09:53:24.663Z,20.60
2022-10-16T09:55:52.201Z,21.02
2022-10-16T09:58:18.951Z,21.30
2022-10-16T10:00:55.624Z,21.60
2022-10-16T10:03:36.371Z,21.74
2022-10-16T10:06:08.075Z,21.58
2022-10-16T10:08:34.620Z,21.53
2022-10-16T10:11:02.231Z,21.65
2022-10-16T10:13:28.966Z,21.36
2022-10-16T10:15:55.704Z,21.37
2022-10-16T10:18:24.976Z,21.11
2022-10-16T10:21:01.894Z,21.01
2022-10-16T10:23:29.623Z,20.98
2022-10-16T10:26:14.589Z,20.83
2022-10-16T10:29:06.948Z,20.90
2022-10-16T10:31:54.669Z,21.01
2022-10-16T10:34:47.709Z,20.81
2022-10-16T10:37:27.124Z,20.94
2022-10-16T10:40:05.260Z,20.97
2022-10-16T10:42:37.832Z,21.07
2022-10-16T10:45:26.558Z,21.21
2022-10-16T10:48:23.739Z,21.12
2022-10-16T10:50:57.966Z,21.13
2022-10-16T10:53:46.612Z,21.50
2022-10-16T10:56:39.307Z,21.47
2022-10-16T10:59:28.599Z,21.66
2022-10-16T11:02:19.289Z,21.55
2022-10-16T11:04:56.334Z,21.76
2022-10-16T11:07:28.117Z,22.12
2022-10-16T11:09:59.027Z,22.25
2022-10-16T11:12:30.163Z,22.61
2022-10-16T11:15:02.592Z,22.60
2022-10-16T11:17:41.148Z,22.59
2022-10-16T11:20:31.141Z,22.60
2022-10-16T11:23:01.463Z,22.34
2022-10-16T11:25:29.615Z,22.32
2022-10-16T11:28:02.552Z,22.42
2022-10-16T11:30:31.901Z,22.47
2022-10-16T11:33:07.092Z,22.34
2022-10-16T11:35:37.320Z,22.51
2022-10-16T11:38:04.826Z,22.23
2022-10-16T11:40:35.546Z,22.28
2022-10-16T11:43:15.838Z,22.13
2022-10-16T11:45:52.876Z,22.18
2022-10-16T11:48:25.860Z,22.02
2022-10-16T11:50:59.842Z,21.98
2022-10-16T11:53:44.319Z,21.99
2022-10-16T11:56:15.163Z,21.88
2022-10-16T11:59:08.252Z,21.91
2022-10-16T12:01:45.070Z,21.91
2022-10-16T12:04:34.081Z,21.77
2022-10-16T12:07:10.908Z,21.88
2022-10-16T12:09:41.518Z,21.86
2022-10-16T12:12:48.037Z,21.91
2022-10-16T12:15:35.203Z,21.88
2022-10-16T12:18:24.729Z,21.74
2022-10-16T12:21:06.513Z,21.63
2022-10-16T12:23:34.592Z,21.60
2022-10-16T12:26:03.412Z,21.55
2022-10-16T12:28:33.008Z,21.45
2022-10-16T12:31:09.479Z,21.35
2022-10-16T12:33:38.023Z,21.40
2022-10-16T12:36:26.356Z,21.45
2022-10-16T12:38:53.375Z,21.28
2022-10-16T12:41:31.291Z,21.26
2022-10-16T12:43:58.198Z,21.16
2022-10-16T12:46:31.001Z,21.25
2022-10-16T12:49:12.821Z,21.20
2022-10-16T12:51:39.630Z,21.13
2022-10-16T12:54:19.574Z,21.05
2022-10-16T12:57:13.988Z,21.18
2022-10-16T13:00:02.861Z,21.20
2022-10-16T13:02:54.768Z,21.18
2022-10-16T13:08:41.356Z,21.09
2022-10-16T13:11:17.828Z,21.13
2022-10-16T13:14:04.534Z,21.15
2022-10-16T13:16:46.287Z,21.24
2022-10-16T13:19:22.788Z,21.34
2022-10-16T13:22:27.944Z,21.31
2022-10-16T13:25:02.285Z,21.35
2022-10-16T13:27:55.407Z,21.35
2022-10-16T13:30:28.186Z,21.42
2022-10-16T13:33:05.696Z,21.50
2022-10-16T13:35:34.767Z,21.49
2022-10-16T13:38:14.759Z,21.52
2022-10-16T13:40:58.062Z,21.53
2022-10-16T13:43:34.096Z,21.61
2022-10-16T13:46:03.722Z,21.58
2022-10-16T13:48:32.069Z,21.56
2022-10-16T13:51:16.864Z,21.42
2022-10-16T13:53:44.558Z,21.44
2022-10-16T13:56:16.619Z,21.31
2022-10-16T13:58:44.175Z,21.34
2022-10-16T14:01:26.206Z,21.31
2022-10-16T14:04:11.584Z,21.28
2022-10-16T14:06:41.914Z,21.23
2022-10-16T14:09:27.328Z,21.25
2022-10-16T14:11:59.200Z,21.20
2022-10-16T14:14:26.300Z,21.16
2022-10-16T14:16:52.916Z,21.21
2022-10-16T14:19:25.122Z,21.20
2022-10-16T14:21:54.933Z,21.13
2022-10-16T14:24:31.551Z,20.96
2022-10-16T14:26:58.719Z,20.95
2022-10-16T14:29:26.959Z,20.92
2022-10-16T14:32:01.338Z,20.92
2022-10-16T14:34:36.053Z,20.96
2022-10-16T14:37:18.137Z,21.04
2022-10-16T14:39:50.362Z,20.93
2022-10-16T14:42:20.708Z,20.97
2022-10-16T14:44:48.449Z,20.78
2022-10-16T14:47:17.676Z,20.75
2022-10-16T14:49:44.256Z,20.61
2022-10-16T14:52:14.052Z,20.61
2022-10-16T14:54:41.333Z,20.46
2022-10-16T14:57:18.424Z,20.49
2022-10-16T14:59:46.054Z,20.54
2022-10-16T15:02:21.963Z,20.37
2022-10-16T15:04:48.855Z,20.43
2022-10-16T15:07:15.915Z,20.45
2022-10-16T15:09:46.573Z,20.54
2022-10-16T15:12:16.135Z,20.54
2022-10-16T15:14:43.587Z,20.39
2022-10-16T15:17:14.589Z,20.33
2022-10-16T15:19:42.998Z,20.27
2022-10-16T15:22:12.331Z,20.25
2022-10-16T15:24:39.144Z,20.25
2022-10-16T15:27:05.726Z,20.23
2022-10-16T15:29:32.328Z,20.20
2022-10-16T15:31:58.969Z,20.14
2022-10-16T15:34:25.578Z,20.09
2022-10-16T15:36:52.240Z,19.97
2022-10-16T15:39:20.550Z,19.92
2022-10-16T15:41:52.299Z,19.84
2022-10-16T15:44:19.222Z,19.77
2022-10-16T15:46:45.873Z,19.72
2022-10-16T15:49:13.195Z,19.61
2022-10-16T15:51:41.473Z,19.56
2022-10-16T15:54:10.159Z,19.45
2022-10-16T15:56:38.297Z,19.38
2022-10-16T15:59:05.786Z,19.31
2022-10-16T16:01:34.812Z,19.23
2022-10-16T16:04:04.674Z,19.13
2022-10-16T16:06:33.995Z,19.04
2022-10-16T16:11:32.918Z,18.87
2022-10-16T16:13:59.633Z,18.79
2022-10-16T16:16:26.401Z,18.72
2022-10-16T16:18:56.172Z,18.62
2022-10-16T16:21:23.169Z,18.50
2022-10-16T16:23:50.822Z,18.44
2022-10-16T16:26:27.132Z,18.35
2022-10-16T16:28:56.777Z,18.27
2022-10-16T16:31:28.223Z,18.20
2022-10-16T16:33:54.994Z,18.09
2022-10-16T16:36:21.530Z,18.00
2022-10-16T16:38:48.187Z,17.93
2022-10-16T16:41:20.072Z,17.85
2022-10-16T16:43:48.277Z,17.77
2022-10-16T16:46:15.902Z,17.68
2022-10-16T16:48:42.630Z,17.60
2022-10-16T16:51:16.430Z,17.54
2022-10-16T16:53:44.138Z,17.49
2022-10-16T16:56:11.071Z,17.42
2022-10-16T16:58:38.681Z,17.34
2022-10-16T17:01:21.750Z,17.21
2022-10-16T17:03:51.166Z,17.20
2022-10-16T17:06:20.746Z,17.14
2022-10-16T17:08:48.611Z,17.07
2022-10-16T17:11:26.341Z,17.01
2022-10-16T17:13:56.735Z,16.93
2022-10-16T17:16:29.423Z,16.85
2022-10-16T17:18:56.126Z,16.77
2022-10-16T17:21:23.290Z,16.74
2022-10-16T17:23:53.160Z,16.64
2022-10-16T17:26:19.861Z,16.59
2022-10-16T17:28:46.731Z,16.53
2022-10-16T17:31:18.968Z,16.49
2022-10-16T17:33:45.723Z,16.44
2022-10-16T17:36:14.722Z,16.37
2022-10-16T17:38:42.308Z,16.32
2022-10-16T17:41:18.279Z,16.28
2022-10-16T17:43:45.604Z,16.23
2022-10-16T17:46:13.454Z,16.15
2022-10-16T17:48:41.364Z,16.13
2022-10-16T17:51:09.132Z,16.07
2022-10-16T17:53:35.896Z,16.00
2022-10-16T17:56:04.446Z,16.00
2022-10-16T17:58:31.863Z,15.93
2022-10-16T18:00:58.435Z,15.87
2022-10-16T18:03:28.860Z,15.82
2022-10-16T18:05:56.086Z,15.76
2022-10-16T18:08:26.329Z,15.73
2022-10-16T18:10:55.567Z,15.71
2022-10-16T18:13:23.414Z,15.68
2022-10-16T18:16:00.792Z,15.65
2022-10-16T18:18:29.633Z,15.62
2022-10-16T18:21:00.537Z,15.61
2022-10-16T18:23:27.788Z,15.58
2022-10-16T18:25:54.865Z,15.52
2022-10-16T18:28:21.491Z,15.49
2022-10-16T18:30:56.277Z,15.43
2022-10-16T18:33:22.860Z,15.42
2022-10-16T18:35:50.166Z,15.38
2022-10-16T18:38:16.934Z,15.35
2022-10-16T18:40:43.728Z,15.27
2022-10-16T18:43:10.288Z,15.27
2022-10-16T18:45:37.002Z,15.23
2022-10-16T18:48:03.998Z,15.22
2022-10-16T18:50:30.976Z,15.16
2022-10-16T18:52:57.668Z,15.07
2022-10-16T18:55:28.943Z,15.08
2022-10-16T18:57:57.390Z,15.05
2022-10-16T19:00:24.158Z,14.99
2022-10-16T19:02:50.794Z,14.98
2022-10-16T19:05:17.368Z,14.98
2022-10-16T19:07:46.537Z,14.93
2022-10-16T19:10:13.196Z,14.88
2022-10-16T19:12:41.398Z,14.86
2022-10-16T19:15:08.538Z,14.84
2022-10-16T19:17:37.170Z,14.77
2022-10-16T19:20:05.460Z,14.78
2022-10-16T19:22:51.555Z,14.73
2022-10-16T19:25:19.815Z,14.74
2022-10-16T19:27:46.708Z,14.69
2022-10-16T19:32:59.982Z,14.70
2022-10-16T19:35:27.017Z,14.70
2022-10-16T19:37:53.699Z,14.65
2022-10-16T19:40:20.307Z,14.64
2022-10-16T19:42:47.718Z,14.68
2022-10-16T19:45:14.472Z,14.66
2022-10-16T19:47:41.126Z,14.70
2022-10-16T19:50:10.033Z,14.69
2022-10-16T19:52:37.472Z,14.71
2022-10-16T19:55:05.805Z,14.70
2022-10-16T20:00:08.578Z,14.63
2022-10-16T20:02:36.062Z,14.65
2022-10-16T20:05:02.898Z,14.62
2022-10-16T20:07:32.569Z,14.60
2022-10-16T20:13:16.055Z,14.50
2022-10-16T20:15:42.611Z,14.48
2022-10-16T20:18:09.527Z,14.51
2022-10-16T20:20:40.038Z,14.51
2022-10-16T20:23:07.295Z,14.51
2022-10-16T20:25:41.700Z,14.48
2022-10-16T20:28:09.816Z,14.47
2022-10-16T20:30:37.515Z,14.46
2022-10-16T20:33:05.030Z,14.45
2022-10-16T20:35:36.619Z,14.48
2022-10-16T20:38:03.353Z,14.48
2022-10-16T20:40:30.058Z,14.51
2022-10-16T20:42:56.665Z,14.50
2022-10-16T20:45:23.261Z,14.51
2022-10-16T20:47:49.954Z,14.50
2022-10-16T20:50:16.732Z,14.49
2022-10-16T20:52:43.395Z,14.49
2022-10-16T20:55:10.137Z,14.50
2022-10-16T20:57:36.783Z,14.49
2022-10-16T21:00:05.102Z,14.49
2022-10-16T21:02:31.893Z,14.49
2022-10-16T21:04:58.438Z,14.48
2022-10-16T21:07:25.250Z,14.49
2022-10-16T21:09:52.103Z,14.49
2022-10-16T21:12:18.657Z,14.42
2022-10-16T21:15:02.564Z,14.50
2022-10-16T21:17:31.973Z,14.43
2022-10-16T21:19:58.570Z,14.41
2022-10-16T21:22:29.297Z,14.41
2022-10-16T21:24:56.123Z,14.46
2022-10-16T21:30:52.115Z,14.38
2022-10-16T21:54:28.672Z,14.36
2022-10-16T22:00:09.005Z,14.36
2022-10-16T22:02:36.212Z,14.25
2022-10-16T22:05:02.908Z,14.32
2022-10-16T22:07:29.994Z,14.35
2022-10-16T22:09:56.867Z,14.32
2022-10-16T22:12:23.411Z,14.31
2022-10-16T22:14:50.015Z,14.29
2022-10-16T22:17:16.663Z,14.28
2022-10-16T22:19:45.641Z,14.27
2022-10-16T22:22:13.822Z,14.31
2022-10-16T22:24:40.374Z,14.29
2022-10-16T22:27:06.945Z,14.26
2022-10-16T22:29:33.504Z,14.21
2022-10-16T22:32:00.135Z,14.28
2022-10-16T22:34:28.139Z,14.26
2022-10-16T22:36:54.693Z,14.25
2022-10-16T22:39:21.256Z,14.20
2022-10-16T22:41:47.815Z,14.23
2022-10-16T22:44:14.359Z,14.22
2022-10-16T22:46:40.990Z,14.24
2022-10-16T22:49:07.548Z,14.20
2022-10-16T22:51:34.120Z,14.24
2022-10-16T22:54:00.654Z,14.23
2022-10-16T22:56:27.419Z,14.21
2022-10-16T22:58:54.007Z,14.23
2022-10-16T23:01:30.690Z,14.23
2022-10-16T23:03:57.377Z,14.23
2022-10-16T23:09:47.511Z,14.25
2022-10-16T23:12:14.179Z,14.26
2022-10-16T23:14:40.799Z,14.31
2022-10-16T23:17:07.434Z,14.31
2022-10-16T23:19:34.007Z,14.26
2022-10-16T23:22:00.591Z,14.30
2022-10-16T23:24:27.212Z,14.29
2022-10-16T23:26:53.793Z,14.24
2022-10-16T23:29:20.496Z,14.36
2022-10-16T23:31:47.070Z,14.36
2022-10-16T23:34:13.666Z,14.35
2022-10-16T23:36:42.273Z,14.45
2022-10-16T23:39:08.936Z,14.38
2022-10-16T23:41:35.528Z,14.35
2022-10-16T23:44:02.168Z,14.45
2022-10-16T23:46:28.752Z,14.46
2022-10-16T23:48:55.472Z,14.47
2022-10-16T23:51:22.024Z,14.47
2022-10-16T23:53:48.550Z,14.45
2022-10-16T23:56:15.123Z,14.47
2022-10-16T23:58:42.049Z,14.52
